Time;durP1;ratioP1;P1;durP2;ratioP2;P2;SDS_P1;SDS_P2;PMS_P1;PMS_P2;Temp;Humidity;BMP_temperature;BMP_pressure;BME280_temperature;BME280_humidity;BME280_pressure;Samples;Min_cycle;Max_cycle;Signal;HPM_P1;HPM_P2
2023/03/26 00:01:57;;;;;;;3.78;0.73;;;;;;;;;;5014521;28;20732;-83
2023/03/26 00:04:24;;;;;;;1.45;0.80;;;;;;;;;;5023636;28;20041;-83
2023/03/26 00:06:50;;;;;;;1.27;0.63;;;;;;;;;;5024406;28;20160;-84
2023/03/26 00:09:16;;;;;;;4.45;0.90;;;;;;;;;;5017754;28;20622;-83
2023/03/26 00:11:42;;;;;;;1.70;0.85;;;;;;;;;;5015452;28;20762;-83
2023/03/26 00:14:12;;;;;;;3.35;0.98;;;;;;;;;;5018401;28;20020;-85
2023/03/26 00:16:40;;;;;;;0.85;0.70;;;;;;;;;;5021211;28;20037;-84
2023/03/26 00:19:06;;;;;;;3.50;0.88;;;;;;;;;;5017450;28;20026;-84
2023/03/26 00:21:32;;;;;;;1.45;0.65;;;;;;;;;;5013827;28;20036;-82
2023/03/26 00:24:03;;;;;;;0.90;0.90;;;;;;;;;;5018254;28;20548;-84
2023/03/26 00:26:30;;;;;;;4.68;1.02;;;;;;;;;;5019276;28;20028;-84
2023/03/26 00:28:56;;;;;;;1.90;1.00;;;;;;;;;;5001950;28;20029;-84
2023/03/26 00:31:22;;;;;;;1.77;1.00;;;;;;;;;;5033684;28;20037;-85
2023/03/26 00:33:54;;;;;;;1.15;1.02;;;;;;;;;;5034726;28;20045;-85
2023/03/26 00:36:20;;;;;;;3.80;1.38;;;;;;;;;;5037085;28;20036;-86
2023/03/26 00:38:46;;;;;;;4.43;1.67;;;;;;;;;;5018494;28;20060;-84
2023/03/26 00:41:21;;;;;;;5.07;1.55;;;;;;;;;;5018083;28;20063;-83
2023/03/26 00:43:48;;;;;;;5.15;2.55;;;;;;;;;;5047167;28;20053;-84
2023/03/26 00:46:14;;;;;;;6.25;3.13;;;;;;;;;;5037025;28;20034;-83
2023/03/26 00:48:41;;;;;;;5.95;2.63;;;;;;;;;;5042542;28;20044;-83
2023/03/26 00:51:08;;;;;;;5.78;2.85;;;;;;;;;;5044975;28;20836;-82
2023/03/26 00:53:37;;;;;;;5.22;1.77;;;;;;;;;;5041876;28;20005;-83
2023/03/26 00:56:02;;;;;;;2.47;1.42;;;;;;;;;;5027993;28;20017;-83
2023/03/26 00:58:28;;;;;;;2.58;1.10;;;;;;;;;;5026098;28;20037;-84
2023/03/26 01:00:59;;;;;;;4.60;1.30;;;;;;;;;;5030678;28;20037;-84
2023/03/26 01:03:29;;;;;;;7.25;1.77;;;;;;;;;;5000330;28;20030;-84
2023/03/26 01:06:13;;;;;;;2.47;1.30;;;;;;;;;;4997085;28;20030;-84
2023/03/26 01:08:41;;;;;;;1.48;1.10;;;;;;;;;;5015579;28;20120;-83
2023/03/26 01:11:15;;;;;;;6.95;1.08;;;;;;;;;;5009082;28;20036;-86
2023/03/26 01:13:46;;;;;;;2.95;1.10;;;;;;;;;;5020989;28;20565;-85
2023/03/26 01:16:35;;;;;;;1.40;0.95;;;;;;;;;;5019567;28;20041;-84
2023/03/26 01:19:02;;;;;;;1.40;0.65;;;;;;;;;;5023351;28;20029;-84
2023/03/26 01:21:29;;;;;;;1.10;1.00;;;;;;;;;;5021046;28;20037;-84
2023/03/26 01:24:07;;;;;;;2.28;0.88;;;;;;;;;;5022306;28;20017;-83
2023/03/26 01:26:46;;;;;;;2.53;1.02;;;;;;;;;;5007791;28;20025;-84
2023/03/26 01:29:30;;;;;;;0.82;0.77;;;;;;;;;;5025260;28;20057;-83
2023/03/26 01:32:05;;;;;;;0.70;0.70;;;;;;;;;;5009963;28;20108;-84
2023/03/26 01:34:48;;;;;;;2.88;1.23;;;;;;;;;;5024984;28;20036;-83
2023/03/26 01:37:34;;;;;;;3.15;1.00;;;;;;;;;;5025088;28;20021;-83
2023/03/26 01:40:26;;;;;;;6.57;1.20;;;;;;;;;;5013532;28;20018;-83
2023/03/26 01:43:10;;;;;;;2.20;0.45;;;;;;;;;;5001892;28;20042;-84
2023/03/26 01:45:38;;;;;;;1.75;1.35;;;;;;;;;;5008399;28;20167;-84
2023/03/26 01:48:05;;;;;;;4.50;1.25;;;;;;;;;;5010245;28;20112;-84
2023/03/26 01:50:30;;;;;;;2.60;1.55;;;;;;;;;;5016531;28;20033;-86
2023/03/26 01:52:55;;;;;;;5.93;1.67;;;;;;;;;;5038749;28;20162;-84
2023/03/26 01:55:28;;;;;;;5.05;1.10;;;;;;;;;;5031360;28;20025;-85
2023/03/26 01:58:14;;;;;;;7.45;1.48;;;;;;;;;;5030259;28;20040;-86
2023/03/26 02:01:11;;;;;;;4.60;2.90;;;;;;;;;;5035999;28;20069;-84
2023/03/26 02:03:45;;;;;;;6.03;2.35;;;;;;;;;;5017590;28;20097;-84
2023/03/26 02:06:16;;;;;;;3.17;2.10;;;;;;;;;;5038581;28;20016;-84
2023/03/26 02:08:51;;;;;;;4.33;1.50;;;;;;;;;;5032901;28;20060;-85
2023/03/26 02:11:16;;;;;;;3.72;1.35;;;;;;;;;;5032741;28;20056;-84
2023/03/26 02:13:44;;;;;;;3.42;1.20;;;;;;;;;;5032263;28;20022;-84
2023/03/26 02:16:15;;;;;;;0.80;0.80;;;;;;;;;;5034003;28;20029;-85
2023/03/26 02:18:42;;;;;;;4.50;1.00;;;;;;;;;;5016377;28;20018;-85
2023/03/26 02:21:20;;;;;;;5.97;1.23;;;;;;;;;;5014863;28;20108;-84
2023/03/26 02:23:48;;;;;;;3.83;1.00;;;;;;;;;;5033737;28;20419;-85
2023/03/26 02:26:16;;;;;;;5.97;1.45;;;;;;;;;;5033864;28;20281;-86
2023/03/26 02:28:41;;;;;;;1.58;1.00;;;;;;;;;;5016346;28;20045;-84
2023/03/26 02:31:09;;;;;;;2.08;1.15;;;;;;;;;;5033757;28;20018;-84
2023/03/26 02:33:35;;;;;;;6.22;1.33;;;;;;;;;;5028274;28;20054;-87
2023/03/26 02:36:01;;;;;;;4.05;1.35;;;;;;;;;;5017782;28;20043;-85
2023/03/26 02:38:35;;;;;;;3.63;1.00;;;;;;;;;;5023790;28;20109;-85
2023/03/26 02:41:01;;;;;;;2.70;1.08;;;;;;;;;;5040170;28;20037;-86
2023/03/26 02:43:27;;;;;;;2.33;1.25;;;;;;;;;;5046860;28;20020;-82
2023/03/26 02:45:53;;;;;;;2.75;1.30;;;;;;;;;;5049897;28;20101;-81
2023/03/26 02:48:19;;;;;;;2.20;1.30;;;;;;;;;;5045628;28;20037;-81
2023/03/26 02:50:45;;;;;;;4.88;1.35;;;;;;;;;;5035133;28;20025;-83
2023/03/26 02:53:12;;;;;;;6.53;1.08;;;;;;;;;;5046213;28;20056;-84
2023/03/26 02:55:37;;;;;;;1.75;0.85;;;;;;;;;;5040660;28;20025;-83
2023/03/26 02:58:03;;;;;;;5.85;1.38;;;;;;;;;;5040183;28;20017;-84
2023/03/26 03:00:28;;;;;;;6.50;0.93;;;;;;;;;;5039738;28;20018;-84
2023/03/26 03:02:56;;;;;;;2.42;0.88;;;;;;;;;;5038724;28;20816;-84
2023/03/26 03:05:25;;;;;;;2.00;1.20;;;;;;;;;;5038009;28;20165;-84
2023/03/26 03:07:51;;;;;;;1.55;0.95;;;;;;;;;;5038535;28;20014;-84
2023/03/26 03:10:20;;;;;;;2.72;1.35;;;;;;;;;;5039617;28;20021;-85
2023/03/26 03:12:46;;;;;;;6.25;1.10;;;;;;;;;;5040891;28;20088;-85
2023/03/26 03:15:12;;;;;;;5.15;0.85;;;;;;;;;;5030794;28;20026;-85
2023/03/26 03:17:39;;;;;;;2.38;1.10;;;;;;;;;;5024890;28;20021;-85
2023/03/26 03:20:08;;;;;;;2.80;1.20;;;;;;;;;;5030953;28;20037;-84
2023/03/26 03:22:34;;;;;;;10.02;1.15;;;;;;;;;;5042879;28;20039;-86
2023/03/26 03:24:59;;;;;;;2.22;1.15;;;;;;;;;;5048392;28;20013;-85
2023/03/26 03:27:25;;;;;;;2.05;1.15;;;;;;;;;;5051389;28;20036;-84
2023/03/26 03:29:54;;;;;;;8.55;1.67;;;;;;;;;;5049448;28;20104;-85
2023/03/26 03:32:24;;;;;;;4.55;1.60;;;;;;;;;;5030039;28;20460;-85
2023/03/26 03:34:49;;;;;;;8.00;1.15;;;;;;;;;;5048717;28;20025;-85
2023/03/26 03:37:16;;;;;;;5.75;1.00;;;;;;;;;;5049922;28;20017;-85
2023/03/26 03:39:41;;;;;;;4.97;1.20;;;;;;;;;;5047745;28;20098;-84
2023/03/26 03:42:06;;;;;;;6.93;1.58;;;;;;;;;;5030676;28;20359;-83
2023/03/26 03:44:32;;;;;;;4.35;1.08;;;;;;;;;;5049699;28;20029;-85
2023/03/26 03:46:57;;;;;;;4.30;1.08;;;;;;;;;;5043617;28;20053;-85
2023/03/26 03:49:23;;;;;;;5.88;0.93;;;;;;;;;;5043336;28;20458;-84
2023/03/26 03:51:48;;;;;;;2.53;0.98;;;;;;;;;;5025981;28;20025;-84
2023/03/26 03:54:13;;;;;;;3.70;1.20;;;;;;;;;;5037410;28;20041;-83
2023/03/26 03:56:39;;;;;;;3.58;1.10;;;;;;;;;;5032596;28;21299;-84
2023/03/26 03:59:04;;;;;;;3.33;1.10;;;;;;;;;;5034761;28;20041;-84
2023/03/26 04:01:30;;;;;;;4.32;1.45;;;;;;;;;;5016790;28;20027;-84
2023/03/26 04:03:57;;;;;;;2.83;1.08;;;;;;;;;;5026072;28;20121;-84
2023/03/26 04:06:24;;;;;;;4.05;1.02;;;;;;;;;;5019422;28;20029;-83
2023/03/26 04:08:51;;;;;;;3.67;1.27;;;;;;;;;;5019209;28;20029;-84
2023/03/26 04:11:17;;;;;;;4.35;1.42;;;;;;;;;;5033739;28;20036;-84
2023/03/26 04:13:43;;;;;;;1.27;0.85;;;;;;;;;;5036318;28;20033;-84
2023/03/26 04:16:09;;;;;;;4.70;1.40;;;;;;;;;;5038842;28;20033;-85
2023/03/26 04:18:36;;;;;;;7.20;1.25;;;;;;;;;;5035349;28;20089;-83
2023/03/26 04:21:04;;;;;;;1.83;1.13;;;;;;;;;;5019690;28;20042;-83
2023/03/26 04:23:30;;;;;;;1.58;0.82;;;;;;;;;;5037164;28;20030;-84
2023/03/26 04:25:57;;;;;;;2.05;0.77;;;;;;;;;;5017070;28;20109;-83
2023/03/26 04:28:25;;;;;;;4.85;1.35;;;;;;;;;;5032130;28;20398;-85
2023/03/26 04:30:52;;;;;;;1.55;1.13;;;;;;;;;;5032769;28;21946;-83
2023/03/26 04:33:19;;;;;;;7.60;1.40;;;;;;;;;;5032013;28;20074;-83
2023/03/26 04:35:47;;;;;;;6.00;1.60;;;;;;;;;;5019109;28;20014;-82
2023/03/26 04:38:15;;;;;;;4.68;1.25;;;;;;;;;;5034509;28;20431;-84
2023/03/26 04:40:42;;;;;;;8.20;1.17;;;;;;;;;;5036723;28;21799;-84
2023/03/26 04:43:16;;;;;;;4.32;1.52;;;;;;;;;;5037624;28;20029;-84
2023/03/26 04:45:44;;;;;;;5.03;1.55;;;;;;;;;;5036157;28;20032;-84
2023/03/26 04:48:13;;;;;;;9.13;1.30;;;;;;;;;;5035113;28;20223;-83
2023/03/26 04:50:41;;;;;;;9.55;1.90;;;;;;;;;;5036742;28;20021;-84
2023/03/26 04:53:12;;;;;;;4.75;1.20;;;;;;;;;;5035257;28;20040;-84
2023/03/26 04:56:00;;;;;;;3.35;0.98;;;;;;;;;;5037754;28;20029;-84
2023/03/26 04:58:31;;;;;;;14.18;1.90;;;;;;;;;;5040157;28;20030;-84
2023/03/26 05:00:59;;;;;;;2.93;0.97;;;;;;;;;;5038712;28;20032;-84
2023/03/26 05:03:29;;;;;;;4.32;1.10;;;;;;;;;;5035532;28;20294;-84
2023/03/26 05:05:56;;;;;;;2.55;1.35;;;;;;;;;;5036684;28;20021;-84
2023/03/26 05:08:21;;;;;;;5.35;1.10;;;;;;;;;;5025472;28;20045;-84
2023/03/26 05:10:46;;;;;;;1.88;1.17;;;;;;;;;;5035205;28;20034;-83
2023/03/26 05:13:12;;;;;;;5.28;1.02;;;;;;;;;;5036953;28;20044;-83
2023/03/26 05:15:37;;;;;;;5.13;1.30;;;;;;;;;;5034355;28;20049;-83
2023/03/26 05:18:03;;;;;;;6.07;1.40;;;;;;;;;;5036042;28;20049;-84
2023/03/26 05:20:30;;;;;;;3.53;1.27;;;;;;;;;;5036603;28;20040;-85
2023/03/26 05:22:55;;;;;;;5.05;1.50;;;;;;;;;;5038559;28;20693;-85
2023/03/26 05:25:21;;;;;;;4.20;1.27;;;;;;;;;;5042616;28;20032;-84
2023/03/26 05:27:47;;;;;;;5.25;1.27;;;;;;;;;;5043958;28;20041;-85
2023/03/26 05:30:17;;;;;;;7.97;1.70;;;;;;;;;;5043515;28;20041;-85
2023/03/26 05:32:43;;;;;;;4.93;0.98;;;;;;;;;;5039564;28;20026;-82
2023/03/26 05:35:10;;;;;;;4.22;1.30;;;;;;;;;;5015413;28;20361;-82
2023/03/26 05:37:37;;;;;;;2.20;1.10;;;;;;;;;;5019608;28;20059;-85
2023/03/26 05:40:10;;;;;;;2.05;1.13;;;;;;;;;;5039668;28;20024;-82
2023/03/26 05:42:35;;;;;;;2.63;1.55;;;;;;;;;;5041198;28;20037;-84
2023/03/26 05:45:01;;;;;;;4.20;1.13;;;;;;;;;;5027347;28;20029;-84
2023/03/26 05:47:26;;;;;;;2.85;1.27;;;;;;;;;;5042310;28;20052;-84
2023/03/26 05:49:52;;;;;;;17.60;1.52;;;;;;;;;;5043482;28;20018;-85
2023/03/26 05:52:17;;;;;;;5.47;1.25;;;;;;;;;;5044515;28;20096;-84
2023/03/26 05:54:43;;;;;;;2.17;1.40;;;;;;;;;;5041496;28;20022;-83
2023/03/26 05:57:08;;;;;;;3.08;1.38;;;;;;;;;;5037613;28;20028;-84
2023/03/26 05:59:34;;;;;;;3.97;1.15;;;;;;;;;;5038919;28;20026;-84
2023/03/26 06:01:59;;;;;;;5.00;1.30;;;;;;;;;;5034448;28;20167;-83
2023/03/26 06:04:27;;;;;;;5.13;1.40;;;;;;;;;;5036904;28;20055;-84
2023/03/26 06:06:52;;;;;;;6.55;1.20;;;;;;;;;;5033518;28;20091;-84
2023/03/26 06:09:18;;;;;;;3.95;1.42;;;;;;;;;;5015461;28;20440;-84
2023/03/26 06:11:43;;;;;;;6.03;1.33;;;;;;;;;;5033793;28;20069;-83
2023/03/26 06:14:09;;;;;;;5.15;1.27;;;;;;;;;;5014429;28;20056;-84
2023/03/26 06:16:34;;;;;;;6.63;1.38;;;;;;;;;;5034013;28;20026;-85
2023/03/26 06:19:00;;;;;;;5.53;1.42;;;;;;;;;;5030015;28;20100;-84
2023/03/26 06:21:25;;;;;;;1.58;1.10;;;;;;;;;;5030691;28;20025;-84
2023/03/26 06:23:51;;;;;;;3.30;1.30;;;;;;;;;;5011141;28;20033;-85
2023/03/26 06:26:16;;;;;;;4.05;1.23;;;;;;;;;;5033471;28;20060;-83
2023/03/26 06:28:42;;;;;;;3.05;1.48;;;;;;;;;;5032738;28;20029;-83
2023/03/26 06:31:07;;;;;;;2.97;1.42;;;;;;;;;;5017135;28;20083;-84
2023/03/26 06:33:32;;;;;;;2.15;1.08;;;;;;;;;;5033744;28;20030;-83
2023/03/26 06:35:58;;;;;;;5.68;1.50;;;;;;;;;;5034529;28;20040;-83
2023/03/26 06:38:24;;;;;;;4.53;1.58;;;;;;;;;;5013671;28;20040;-84
2023/03/26 06:40:49;;;;;;;2.72;1.08;;;;;;;;;;5033464;28;20049;-83
2023/03/26 06:43:15;;;;;;;8.63;1.27;;;;;;;;;;5037275;28;20030;-83
2023/03/26 06:45:41;;;;;;;1.95;1.20;;;;;;;;;;5024368;28;20060;-83
2023/03/26 06:48:07;;;;;;;4.00;1.08;;;;;;;;;;5038930;28;20024;-84
2023/03/26 06:50:32;;;;;;;2.13;0.88;;;;;;;;;;5039906;28;20915;-84
2023/03/26 06:52:58;;;;;;;4.07;1.20;;;;;;;;;;5042691;28;20119;-83
2023/03/26 06:55:24;;;;;;;2.63;1.38;;;;;;;;;;5042272;28;20103;-81
2023/03/26 06:57:50;;;;;;;3.40;1.40;;;;;;;;;;5044097;28;20025;-88
2023/03/26 07:00:17;;;;;;;3.25;1.48;;;;;;;;;;5020697;28;20017;-87
2023/03/26 07:02:42;;;;;;;5.85;1.50;;;;;;;;;;5044301;28;20033;-86
2023/03/26 07:05:08;;;;;;;5.15;1.05;;;;;;;;;;5044301;28;20048;-87
2023/03/26 07:07:33;;;;;;;4.20;1.88;;;;;;;;;;5027067;28;20021;-85
2023/03/26 07:09:58;;;;;;;7.78;1.17;;;;;;;;;;5044601;28;20029;-85
2023/03/26 07:12:25;;;;;;;6.45;1.77;;;;;;;;;;5053586;28;20110;-84
2023/03/26 07:14:50;;;;;;;5.22;1.30;;;;;;;;;;5054663;28;20013;-85
2023/03/26 07:17:16;;;;;;;4.15;1.27;;;;;;;;;;5052969;28;20057;-85
2023/03/26 07:19:41;;;;;;;2.33;1.02;;;;;;;;;;5043809;28;20002;-85
2023/03/26 07:22:14;;;;;;;6.65;1.35;;;;;;;;;;5044968;28;20037;-86
2023/03/26 07:24:39;;;;;;;4.47;1.13;;;;;;;;;;5042449;28;20033;-85
2023/03/26 07:27:16;;;;;;;4.07;1.27;;;;;;;;;;5032415;28;20030;-84
2023/03/26 07:29:50;;;;;;;3.15;0.95;;;;;;;;;;5023534;28;20022;-85
2023/03/26 07:32:32;;;;;;;3.65;1.00;;;;;;;;;;5042006;28;20250;-86
2023/03/26 07:35:03;;;;;;;2.55;1.25;;;;;;;;;;5036274;28;20021;-86
2023/03/26 07:38:03;;;;;;;3.58;1.17;;;;;;;;;;5013939;28;20082;-86
2023/03/26 07:40:45;;;;;;;7.03;1.50;;;;;;;;;;5016884;28;20072;-86
2023/03/26 07:43:42;;;;;;;3.53;1.42;;;;;;;;;;5016436;28;20040;-85
2023/03/26 07:46:12;;;;;;;8.00;1.60;;;;;;;;;;5036276;28;20547;-87
2023/03/26 07:48:43;;;;;;;5.68;1.80;;;;;;;;;;5043229;28;20024;-86
2023/03/26 07:51:09;;;;;;;3.13;1.05;;;;;;;;;;5033426;28;20103;-86
2023/03/26 07:53:35;;;;;;;2.42;1.10;;;;;;;;;;5033143;28;20025;-86
2023/03/26 07:56:07;;;;;;;2.83;1.27;;;;;;;;;;5039123;28;20033;-87
2023/03/26 07:58:39;;;;;;;1.25;1.05;;;;;;;;;;5029723;28;20420;-87
2023/03/26 08:01:17;;;;;;;6.97;1.73;;;;;;;;;;5028253;28;20036;-86
2023/03/26 08:04:11;;;;;;;2.65;1.27;;;;;;;;;;5016531;28;20037;-85
2023/03/26 08:06:38;;;;;;;2.15;1.20;;;;;;;;;;5029573;28;20031;-85
2023/03/26 08:09:27;;;;;;;2.78;1.27;;;;;;;;;;5009274;28;20021;-86
2023/03/26 08:12:15;;;;;;;3.85;1.95;;;;;;;;;;5025005;28;20033;-83
2023/03/26 08:15:36;;;;;;;4.75;1.63;;;;;;;;;;5028210;28;20025;-87
2023/03/26 08:18:26;;;;;;;6.55;1.30;;;;;;;;;;4986691;28;20099;-86
2023/03/26 08:21:03;;;;;;;2.63;1.17;;;;;;;;;;5016403;28;20030;-87
2023/03/26 08:23:53;;;;;;;4.25;1.48;;;;;;;;;;5026229;28;20021;-86
2023/03/26 08:26:33;;;;;;;5.40;1.80;;;;;;;;;;5031098;28;20522;-87
2023/03/26 08:29:28;;;;;;;12.60;2.30;;;;;;;;;;5014675;28;20087;-86
2023/03/26 08:31:56;;;;;;;4.60;1.45;;;;;;;;;;5038427;28;20033;-86
2023/03/26 08:34:22;;;;;;;2.55;1.48;;;;;;;;;;5040498;28;20056;-86
2023/03/26 08:36:47;;;;;;;5.55;1.90;;;;;;;;;;5039758;28;20077;-87
2023/03/26 08:39:13;;;;;;;1.65;1.17;;;;;;;;;;5017645;28;20095;-86
2023/03/26 08:42:27;;;;;;;7.10;1.73;;;;;;;;;;5039007;28;20029;-86
2023/03/26 08:45:21;;;;;;;5.55;1.63;;;;;;;;;;5016772;28;20025;-86
2023/03/26 08:48:17;;;;;;;2.40;1.10;;;;;;;;;;5042988;28;20021;-85
2023/03/26 08:51:28;;;;;;;4.20;1.38;;;;;;;;;;5019010;28;20084;-86
2023/03/26 08:54:39;;;;;;;2.58;1.58;;;;;;;;;;5023719;28;20025;-85
2023/03/26 08:57:26;;;;;;;3.85;1.83;;;;;;;;;;5007619;28;20044;-86
2023/03/26 09:00:20;;;;;;;5.40;1.80;;;;;;;;;;5026060;28;20017;-85
2023/03/26 09:02:54;;;;;;;5.80;1.65;;;;;;;;;;5033602;28;20038;-87
2023/03/26 09:05:53;;;;;;;2.47;1.33;;;;;;;;;;5032022;28;20028;-84
2023/03/26 09:08:47;;;;;;;5.60;1.52;;;;;;;;;;5032734;28;20507;-85
2023/03/26 09:11:34;;;;;;;5.35;1.50;;;;;;;;;;5029682;28;20037;-83
2023/03/26 09:14:22;;;;;;;7.47;1.92;;;;;;;;;;5030084;28;20030;-84
2023/03/26 09:17:14;;;;;;;8.73;2.25;;;;;;;;;;5034113;28;20041;-85
2023/03/26 09:20:26;;;;;;;2.72;1.65;;;;;;;;;;5030633;28;20026;-84
2023/03/26 09:23:13;;;;;;;4.32;1.92;;;;;;;;;;5033302;28;20049;-84
2023/03/26 09:25:59;;;;;;;7.63;2.05;;;;;;;;;;5037779;28;20035;-84
2023/03/26 09:29:12;;;;;;;4.13;1.67;;;;;;;;;;5040368;28;20026;-85
2023/03/26 09:31:40;;;;;;;;;;;;;;;;;;5042037;28;20057;-85
2023/03/26 09:34:14;;;;;;;3.72;1.42;;;;;;;;;;5041506;28;19931;-83
2023/03/26 09:36:52;;;;;;;4.53;1.67;;;;;;;;;;5027218;28;20225;-86
2023/03/26 09:39:41;;;;;;;2.03;1.40;;;;;;;;;;5033746;28;20093;-85
2023/03/26 09:42:08;;;;;;;6.07;1.35;;;;;;;;;;5038784;28;20037;-85
2023/03/26 09:45:11;;;;;;;2.50;0.95;;;;;;;;;;5050112;28;20028;-85
2023/03/26 09:48:11;;;;;;;3.90;1.38;;;;;;;;;;5054992;28;20029;-85
2023/03/26 09:50:39;;;;;;;2.33;1.35;;;;;;;;;;5047252;28;20096;-85
2023/03/26 09:53:20;;;;;;;1.77;0.95;;;;;;;;;;5024301;28;20254;-86
2023/03/26 09:56:14;;;;;;;5.55;1.65;;;;;;;;;;5029711;28;20029;-85
2023/03/26 09:58:42;;;;;;;2.70;1.20;;;;;;;;;;5038494;28;20116;-84
2023/03/26 10:01:46;;;;;;;1.67;1.33;;;;;;;;;;5025471;28;20084;-86
2023/03/26 10:04:27;;;;;;;2.28;0.70;;;;;;;;;;5038971;28;20026;-85
2023/03/26 10:07:37;;;;;;;2.33;1.20;;;;;;;;;;5037598;28;20029;-84
2023/03/26 10:10:42;;;;;;;1.05;1.05;;;;;;;;;;5050164;28;20030;-85
2023/03/26 10:13:38;;;;;;;1.52;1.42;;;;;;;;;;5012276;28;20038;-86
2023/03/26 10:16:37;;;;;;;1.65;1.20;;;;;;;;;;5043483;28;20069;-84
2023/03/26 10:19:22;;;;;;;1.27;0.68;;;;;;;;;;5049024;28;20045;-83
2023/03/26 10:22:09;;;;;;;1.90;1.38;;;;;;;;;;5038965;28;20066;-82
2023/03/26 10:25:12;;;;;;;0.75;0.75;;;;;;;;;;5057541;28;20025;-83
2023/03/26 10:27:43;;;;;;;2.00;1.33;;;;;;;;;;5059234;28;20018;-85
2023/03/26 10:30:09;;;;;;;1.15;0.90;;;;;;;;;;5055292;28;20021;-84
2023/03/26 10:32:59;;;;;;;8.27;2.67;;;;;;;;;;5054397;28;20056;-85
2023/03/26 10:35:30;;;;;;;1.77;1.58;;;;;;;;;;5052982;28;20014;-86
2023/03/26 10:38:17;;;;;;;2.03;1.40;;;;;;;;;;5052562;28;20055;-85
2023/03/26 10:41:27;;;;;;;0.50;0.50;;;;;;;;;;5032256;28;20034;-85
2023/03/26 10:43:52;;;;;;;4.13;1.38;;;;;;;;;;4946503;29;20036;-82
2023/03/26 10:46:24;;;;;;;1.52;1.10;;;;;;;;;;5030012;28;20034;-80
2023/03/26 10:49:02;;;;;;;1.55;1.10;;;;;;;;;;5064386;28;20100;-80
2023/03/26 10:51:49;;;;;;;4.13;1.60;;;;;;;;;;5035614;28;20033;-84
2023/03/26 10:54:32;;;;;;;1.55;1.10;;;;;;;;;;5026123;28;20013;-81
2023/03/26 10:57:01;;;;;;;0.90;0.77;;;;;;;;;;5048046;28;20034;-80
2023/03/26 10:59:27;;;;;;;1.10;0.80;;;;;;;;;;5059375;28;20032;-81
2023/03/26 11:02:14;;;;;;;1.95;1.00;;;;;;;;;;5053434;28;20021;-80
2023/03/26 11:04:54;;;;;;;1.52;1.30;;;;;;;;;;5059399;28;20037;-84
2023/03/26 11:07:35;;;;;;;1.75;0.77;;;;;;;;;;5045482;28;20041;-83
2023/03/26 11:10:07;;;;;;;4.57;1.83;;;;;;;;;;5051639;28;20025;-84
2023/03/26 11:12:52;;;;;;;1.88;1.42;;;;;;;;;;5042948;28;20040;-86
2023/03/26 11:15:39;;;;;;;1.50;0.70;;;;;;;;;;4995880;28;20028;-83
2023/03/26 11:18:11;;;;;;;3.40;0.90;;;;;;;;;;5041585;28;20039;-83
2023/03/26 11:20:54;;;;;;;0.60;0.60;;;;;;;;;;5051402;28;20029;-82
2023/03/26 11:23:41;;;;;;;0.40;0.40;;;;;;;;;;5050456;28;20052;-81
2023/03/26 11:26:26;;;;;;;0.55;0.55;;;;;;;;;;5048268;28;20021;-80
2023/03/26 11:29:06;;;;;;;0.40;0.40;;;;;;;;;;5047028;28;20014;-80
2023/03/26 11:31:43;;;;;;;1.10;0.32;;;;;;;;;;5044331;28;20029;-80
2023/03/26 11:34:15;;;;;;;0.57;0.40;;;;;;;;;;5027520;28;20029;-83
2023/03/26 11:36:46;;;;;;;0.85;0.52;;;;;;;;;;5046010;28;20217;-83
2023/03/26 11:39:19;;;;;;;3.55;0.77;;;;;;;;;;5033669;28;20026;-82
2023/03/26 11:41:46;;;;;;;0.60;0.57;;;;;;;;;;5038140;28;20049;-83
2023/03/26 11:44:23;;;;;;;0.30;0.30;;;;;;;;;;5042118;28;20088;-82
2023/03/26 11:46:57;;;;;;;1.13;0.38;;;;;;;;;;5044146;28;20082;-83
2023/03/26 11:52:14;;;;;;;3.90;0.70;;;;;;;;;;5133052;23;20049;-82
2023/03/26 11:54:39;;;;;;;0.10;0.10;;;;;;;;;;5050065;28;20021;-84
2023/03/26 11:57:10;;;;;;;0.75;0.57;;;;;;;;;;5071207;28;20031;-83
2023/03/26 11:59:42;;;;;;;1.40;0.40;;;;;;;;;;5065794;28;20108;-83
2023/03/26 12:02:08;;;;;;;0.50;0.47;;;;;;;;;;5066046;28;20029;-82
2023/03/26 12:04:36;;;;;;;0.60;0.40;;;;;;;;;;5068720;28;20872;-83
2023/03/26 12:07:17;;;;;;;0.40;0.40;;;;;;;;;;5064574;28;20559;-83
2023/03/26 12:09:56;;;;;;;0.77;0.77;;;;;;;;;;5049917;28;20071;-83
2023/03/26 12:12:30;;;;;;;0.20;0.20;;;;;;;;;;5062133;28;20028;-84
2023/03/26 12:14:57;;;;;;;4.97;0.40;;;;;;;;;;5065049;28;20028;-84
2023/03/26 12:17:29;;;;;;;1.33;0.60;;;;;;;;;;5032881;28;20017;-85
2023/03/26 12:19:55;;;;;;;0.22;0.22;;;;;;;;;;5038008;28;20041;-85
2023/03/26 12:22:37;;;;;;;0.52;0.52;;;;;;;;;;5053404;28;20490;-85
2023/03/26 12:25:20;;;;;;;;;;;;;;;;;;5043190;28;20035;-84
2023/03/26 12:27:56;;;;;;;1.75;0.60;;;;;;;;;;5053102;28;19924;-85
2023/03/26 12:30:29;;;;;;;0.10;0.10;;;;;;;;;;5054168;28;20107;-85
2023/03/26 12:32:59;;;;;;;2.08;0.45;;;;;;;;;;5035771;28;20034;-85
2023/03/26 12:35:28;;;;;;;0.30;0.30;;;;;;;;;;5045790;28;20031;-84
2023/03/26 12:38:11;;;;;;;0.77;0.47;;;;;;;;;;5061762;28;20165;-84
2023/03/26 12:40:38;;;;;;;3.88;0.70;;;;;;;;;;5069123;28;20021;-82
2023/03/26 12:43:34;;;;;;;4.30;0.50;;;;;;;;;;5069433;28;20025;-82
2023/03/26 12:46:00;;;;;;;1.25;0.50;;;;;;;;;;5060349;28;20068;-84
2023/03/26 12:48:25;;;;;;;1.10;0.70;;;;;;;;;;5046082;28;20055;-83
2023/03/26 12:51:18;;;;;;;2.97;0.70;;;;;;;;;;5058298;28;20025;-84
2023/03/26 12:53:56;;;;;;;1.85;0.70;;;;;;;;;;5058461;28;20033;-84
2023/03/26 12:56:34;;;;;;;9.73;1.23;;;;;;;;;;5056198;28;20032;-83
2023/03/26 12:59:37;;;;;;;0.40;0.40;;;;;;;;;;5046782;28;19997;-84
2023/03/26 13:02:31;;;;;;;1.35;0.63;;;;;;;;;;5064881;28;20021;-82
2023/03/26 13:05:35;;;;;;;0.70;0.70;;;;;;;;;;5056041;28;20043;-82
2023/03/26 13:08:22;;;;;;;3.58;0.80;;;;;;;;;;5055395;28;20031;-82
2023/03/26 13:11:07;;;;;;;0.50;0.50;;;;;;;;;;5057232;28;20020;-83
2023/03/26 13:13:55;;;;;;;0.47;0.45;;;;;;;;;;5052528;28;20131;-83
2023/03/26 13:16:28;;;;;;;0.57;0.47;;;;;;;;;;5044769;28;20611;-82
2023/03/26 13:19:07;;;;;;;0.43;0.43;;;;;;;;;;5033775;28;20017;-82
2023/03/26 13:21:51;;;;;;;1.42;0.52;;;;;;;;;;5033794;28;20029;-81
2023/03/26 13:24:43;;;;;;;3.33;0.43;;;;;;;;;;5034252;28;20026;-81
2023/03/26 13:27:17;;;;;;;0.90;0.38;;;;;;;;;;5049562;28;20155;-83
2023/03/26 13:30:01;;;;;;;1.20;0.70;;;;;;;;;;5048711;28;20029;-83
2023/03/26 13:32:56;;;;;;;4.65;1.05;;;;;;;;;;5043265;28;20025;-83
2023/03/26 13:35:31;;;;;;;2.53;0.75;;;;;;;;;;5062328;28;20023;-83
2023/03/26 13:38:39;;;;;;;0.32;0.17;;;;;;;;;;5054456;28;20394;-83
2023/03/26 13:41:20;;;;;;;0.52;0.52;;;;;;;;;;5034768;28;20055;-83
2023/03/26 13:44:14;;;;;;;3.72;0.40;;;;;;;;;;5047157;28;20025;-84
2023/03/26 13:46:45;;;;;;;5.40;0.50;;;;;;;;;;5037588;28;20501;-83
2023/03/26 13:49:14;;;;;;;1.40;0.68;;;;;;;;;;5051167;28;20025;-82
2023/03/26 13:51:46;;;;;;;0.57;0.40;;;;;;;;;;5054846;28;20056;-81
2023/03/26 13:54:25;;;;;;;1.40;0.77;;;;;;;;;;5048731;28;20567;-82
2023/03/26 13:56:58;;;;;;;3.25;0.70;;;;;;;;;;5038322;28;20036;-82
2023/03/26 13:59:30;;;;;;;1.02;0.40;;;;;;;;;;5051178;28;20013;-81
2023/03/26 14:02:27;;;;;;;2.75;0.77;;;;;;;;;;5050151;28;20395;-82
2023/03/26 14:04:57;;;;;;;1.85;0.95;;;;;;;;;;5025493;28;20037;-81
2023/03/26 14:07:53;;;;;;;2.58;0.65;;;;;;;;;;5061153;28;20021;-82
2023/03/26 14:10:27;;;;;;;2.88;0.80;;;;;;;;;;5000144;28;20036;-82
2023/03/26 14:12:59;;;;;;;1.95;0.85;;;;;;;;;;5035711;28;20111;-81
2023/03/26 14:15:45;;;;;;;1.67;0.55;;;;;;;;;;5042355;28;20614;-82
2023/03/26 14:18:11;;;;;;;0.60;0.40;;;;;;;;;;5050317;28;20025;-81
2023/03/26 14:21:03;;;;;;;1.58;0.80;;;;;;;;;;5050467;28;20139;-82
2023/03/26 14:23:47;;;;;;;7.00;2.20;;;;;;;;;;5047179;28;20559;-82
2023/03/26 14:26:25;;;;;;;16.75;5.10;;;;;;;;;;5050162;28;20013;-83
2023/03/26 14:29:09;;;;;;;8.13;2.42;;;;;;;;;;5053164;28;20025;-83
2023/03/26 14:31:56;;;;;;;4.13;3.08;;;;;;;;;;5036909;28;20025;-83
2023/03/26 14:34:52;;;;;;;1.08;0.55;;;;;;;;;;5047463;28;20057;-83
2023/03/26 14:37:49;;;;;;;0.65;0.38;;;;;;;;;;5052542;28;20028;-84
2023/03/26 14:40:42;;;;;;;1.98;0.52;;;;;;;;;;5049686;28;20066;-83
2023/03/26 14:43:08;;;;;;;0.30;0.30;;;;;;;;;;5049722;28;20062;-82
2023/03/26 14:45:49;;;;;;;0.68;0.40;;;;;;;;;;5045024;28;20456;-84
2023/03/26 14:48:50;;;;;;;0.40;0.30;;;;;;;;;;5054038;28;20036;-83
2023/03/26 14:51:40;;;;;;;0.30;0.30;;;;;;;;;;5027222;28;20033;-82
2023/03/26 14:54:13;;;;;;;0.40;0.40;;;;;;;;;;5035199;28;20032;-80
2023/03/26 14:56:47;;;;;;;0.80;0.50;;;;;;;;;;5055359;28;20017;-83
2023/03/26 14:59:40;;;;;;;0.30;0.30;;;;;;;;;;5040060;28;20488;-82
2023/03/26 15:02:42;;;;;;;2.25;0.40;;;;;;;;;;5047858;28;20395;-80
2023/03/26 15:05:17;;;;;;;3.92;1.02;;;;;;;;;;5045811;28;20092;-82
2023/03/26 15:08:13;;;;;;;7.38;3.53;;;;;;;;;;5046332;28;20033;-82
2023/03/26 15:11:15;;;;;;;3.20;2.47;;;;;;;;;;5031182;28;20014;-83
2023/03/26 15:13:55;;;;;;;1.50;1.40;;;;;;;;;;5058595;28;20032;-83
2023/03/26 15:16:49;;;;;;;0.70;0.68;;;;;;;;;;5046304;28;20024;-82
2023/03/26 15:19:51;;;;;;;0.88;0.88;;;;;;;;;;5046558;28;20029;-82
2023/03/26 15:22:26;;;;;;;0.40;0.30;;;;;;;;;;5039951;28;20060;-83
2023/03/26 15:25:17;;;;;;;3.83;2.42;;;;;;;;;;5038311;28;20021;-81
2023/03/26 15:28:16;;;;;;;6.30;3.37;;;;;;;;;;5050132;28;20029;-82
2023/03/26 15:31:15;;;;;;;6.57;3.60;;;;;;;;;;5066383;28;20289;-84
2023/03/26 15:34:18;;;;;;;7.95;3.42;;;;;;;;;;5041437;28;20055;-85
2023/03/26 15:37:11;;;;;;;4.22;2.35;;;;;;;;;;5054492;28;20080;-83